sensor_id;sensor_type;location;lat;lon;timestamp;temperature;humidity
44537;DHT22;30245;51.966;6.292;2023-07-29T00:00:51;24.50;61.40
44537;DHT22;30245;51.966;6.292;2023-07-29T00:03:17;24.50;61.40
44537;DHT22;30245;51.966;6.292;2023-07-29T00:05:42;24.50;61.40
44537;DHT22;30245;51.966;6.292;2023-07-29T00:08:08;24.60;61.50
44537;DHT22;30245;51.966;6.292;2023-07-29T00:10:36;24.60;61.20
44537;DHT22;30245;51.966;6.292;2023-07-29T00:13:03;24.50;61.30
44537;DHT22;30245;51.966;6.292;2023-07-29T00:15:29;24.50;61.40
44537;DHT22;30245;51.966;6.292;2023-07-29T00:17:54;24.60;61.20
44537;DHT22;30245;51.966;6.292;2023-07-29T00:20:20;24.70;61.00
44537;DHT22;30245;51.966;6.292;2023-07-29T00:22:46;24.70;60.90
44537;DHT22;30245;51.966;6.292;2023-07-29T00:25:11;24.70;60.80
44537;DHT22;30245;51.966;6.292;2023-07-29T00:27:37;24.70;60.70
44537;DHT22;30245;51.966;6.292;2023-07-29T00:30:03;24.70;60.80
44537;DHT22;30245;51.966;6.292;2023-07-29T00:32:29;24.60;60.80
44537;DHT22;30245;51.966;6.292;2023-07-29T00:34:56;24.70;61.00
44537;DHT22;30245;51.966;6.292;2023-07-29T00:37:21;24.70;61.00
44537;DHT22;30245;51.966;6.292;2023-07-29T00:39:47;24.60;61.00
44537;DHT22;30245;51.966;6.292;2023-07-29T00:42:13;24.60;61.20
44537;DHT22;30245;51.966;6.292;2023-07-29T00:44:38;24.40;61.50
44537;DHT22;30245;51.966;6.292;2023-07-29T00:47:05;24.40;61.90
44537;DHT22;30245;51.966;6.292;2023-07-29T00:49:31;24.40;61.80
44537;DHT22;30245;51.966;6.292;2023-07-29T00:51:57;24.50;61.70
44537;DHT22;30245;51.966;6.292;2023-07-29T00:54:23;24.50;61.60
44537;DHT22;30245;51.966;6.292;2023-07-29T00:56:49;24.50;61.50
44537;DHT22;30245;51.966;6.292;2023-07-29T00:59:15;24.60;61.30
44537;DHT22;30245;51.966;6.292;2023-07-29T01:01:41;24.70;61.20
44537;DHT22;30245;51.966;6.292;2023-07-29T01:04:07;24.70;61.10
44537;DHT22;30245;51.966;6.292;2023-07-29T01:09:25;24.80;60.80
44537;DHT22;30245;51.966;6.292;2023-07-29T01:12:05;24.80;60.70
44537;DHT22;30245;51.966;6.292;2023-07-29T01:17:44;24.70;60.70
44537;DHT22;30245;51.966;6.292;2023-07-29T01:20:14;24.80;60.70
44537;DHT22;30245;51.966;6.292;2023-07-29T01:22:41;24.80;60.60
44537;DHT22;30245;51.966;6.292;2023-07-29T01:25:07;24.80;60.60
44537;DHT22;30245;51.966;6.292;2023-07-29T01:27:33;24.80;60.70
44537;DHT22;30245;51.966;6.292;2023-07-29T01:29:59;24.70;61.00
44537;DHT22;30245;51.966;6.292;2023-07-29T01:32:32;24.40;61.60
44537;DHT22;30245;51.966;6.292;2023-07-29T01:37:40;24.20;62.40
44537;DHT22;30245;51.966;6.292;2023-07-29T01:40:08;24.20;62.50
44537;DHT22;30245;51.966;6.292;2023-07-29T01:42:34;24.20;62.50
44537;DHT22;30245;51.966;6.292;2023-07-29T01:45:00;24.30;62.40
44537;DHT22;30245;51.966;6.292;2023-07-29T01:47:25;24.40;62.40
44537;DHT22;30245;51.966;6.292;2023-07-29T01:49:51;24.40;62.30
44537;DHT22;30245;51.966;6.292;2023-07-29T01:52:17;24.40;62.10
44537;DHT22;30245;51.966;6.292;2023-07-29T01:54:42;24.50;62.00
44537;DHT22;30245;51.966;6.292;2023-07-29T01:57:08;24.50;62.50
44537;DHT22;30245;51.966;6.292;2023-07-29T01:59:34;24.50;62.00
44537;DHT22;30245;51.966;6.292;2023-07-29T02:01:59;24.50;62.00
44537;DHT22;30245;51.966;6.292;2023-07-29T02:04:26;24.50;61.80
44537;DHT22;30245;51.966;6.292;2023-07-29T02:06:51;24.60;61.70
44537;DHT22;30245;51.966;6.292;2023-07-29T02:09:17;24.60;61.80
44537;DHT22;30245;51.966;6.292;2023-07-29T02:11:42;24.50;62.00
44537;DHT22;30245;51.966;6.292;2023-07-29T02:14:08;24.50;62.00
44537;DHT22;30245;51.966;6.292;2023-07-29T02:16:34;24.50;62.10
44537;DHT22;30245;51.966;6.292;2023-07-29T02:19:00;24.50;61.90
44537;DHT22;30245;51.966;6.292;2023-07-29T02:21:25;24.50;61.90
44537;DHT22;30245;51.966;6.292;2023-07-29T02:23:51;24.60;61.90
44537;DHT22;30245;51.966;6.292;2023-07-29T02:26:17;24.50;61.80
44537;DHT22;30245;51.966;6.292;2023-07-29T02:28:42;24.60;61.80
44537;DHT22;30245;51.966;6.292;2023-07-29T02:33:39;24.60;61.70
44537;DHT22;30245;51.966;6.292;2023-07-29T02:36:05;24.60;61.70
44537;DHT22;30245;51.966;6.292;2023-07-29T02:38:30;24.60;61.70
44537;DHT22;30245;51.966;6.292;2023-07-29T02:40:56;24.60;61.60
44537;DHT22;30245;51.966;6.292;2023-07-29T02:43:22;24.50;61.60
44537;DHT22;30245;51.966;6.292;2023-07-29T02:45:47;24.50;62.00
44537;DHT22;30245;51.966;6.292;2023-07-29T02:48:13;24.50;62.10
44537;DHT22;30245;51.966;6.292;2023-07-29T02:50:39;24.50;62.20
44537;DHT22;30245;51.966;6.292;2023-07-29T02:53:04;24.50;62.20
44537;DHT22;30245;51.966;6.292;2023-07-29T02:55:30;24.40;62.30
44537;DHT22;30245;51.966;6.292;2023-07-29T02:57:56;24.40;62.50
44537;DHT22;30245;51.966;6.292;2023-07-29T03:00:21;24.30;62.50
44537;DHT22;30245;51.966;6.292;2023-07-29T03:02:47;24.40;62.70
44537;DHT22;30245;51.966;6.292;2023-07-29T03:05:13;24.30;62.80
44537;DHT22;30245;51.966;6.292;2023-07-29T03:07:38;24.30;63.00
44537;DHT22;30245;51.966;6.292;2023-07-29T03:10:04;24.30;62.90
44537;DHT22;30245;51.966;6.292;2023-07-29T03:12:31;24.30;62.80
44537;DHT22;30245;51.966;6.292;2023-07-29T03:14:56;24.30;63.00
44537;DHT22;30245;51.966;6.292;2023-07-29T03:17:22;24.30;62.90
44537;DHT22;30245;51.966;6.292;2023-07-29T03:19:47;24.40;62.80
44537;DHT22;30245;51.966;6.292;2023-07-29T03:22:13;24.40;62.70
44537;DHT22;30245;51.966;6.292;2023-07-29T03:24:38;24.40;62.60
44537;DHT22;30245;51.966;6.292;2023-07-29T03:27:04;24.40;62.60
44537;DHT22;30245;51.966;6.292;2023-07-29T03:29:30;24.40;62.60
44537;DHT22;30245;51.966;6.292;2023-07-29T03:31:56;24.30;62.80
44537;DHT22;30245;51.966;6.292;2023-07-29T03:34:21;24.20;63.20
44537;DHT22;30245;51.966;6.292;2023-07-29T03:36:47;24.10;63.40
44537;DHT22;30245;51.966;6.292;2023-07-29T03:39:14;24.00;63.70
44537;DHT22;30245;51.966;6.292;2023-07-29T03:41:39;24.00;63.70
44537;DHT22;30245;51.966;6.292;2023-07-29T03:44:05;24.00;63.70
44537;DHT22;30245;51.966;6.292;2023-07-29T03:46:31;23.90;64.00
44537;DHT22;30245;51.966;6.292;2023-07-29T03:48:57;23.90;64.30
44537;DHT22;30245;51.966;6.292;2023-07-29T03:51:22;23.90;64.50
44537;DHT22;30245;51.966;6.292;2023-07-29T03:53:50;23.80;64.30
44537;DHT22;30245;51.966;6.292;2023-07-29T03:56:15;23.80;64.20
44537;DHT22;30245;51.966;6.292;2023-07-29T03:58:41;23.80;64.20
44537;DHT22;30245;51.966;6.292;2023-07-29T04:01:07;23.80;64.00
44537;DHT22;30245;51.966;6.292;2023-07-29T04:03:33;23.90;63.80
44537;DHT22;30245;51.966;6.292;2023-07-29T04:05:59;23.90;63.60
44537;DHT22;30245;51.966;6.292;2023-07-29T04:08:25;23.90;63.30
44537;DHT22;30245;51.966;6.292;2023-07-29T04:10:51;23.80;63.40
44537;DHT22;30245;51.966;6.292;2023-07-29T04:13:16;23.80;63.50
44537;DHT22;30245;51.966;6.292;2023-07-29T04:15:42;23.90;63.30
44537;DHT22;30245;51.966;6.292;2023-07-29T04:18:07;24.00;63.00
44537;DHT22;30245;51.966;6.292;2023-07-29T04:20:33;24.00;62.80
44537;DHT22;30245;51.966;6.292;2023-07-29T04:22:59;24.00;62.60
44537;DHT22;30245;51.966;6.292;2023-07-29T04:25:24;24.00;62.40
44537;DHT22;30245;51.966;6.292;2023-07-29T04:27:50;24.00;62.30
44537;DHT22;30245;51.966;6.292;2023-07-29T04:30:16;24.00;62.30
44537;DHT22;30245;51.966;6.292;2023-07-29T04:32:41;24.00;62.50
44537;DHT22;30245;51.966;6.292;2023-07-29T04:35:08;23.90;62.50
44537;DHT22;30245;51.966;6.292;2023-07-29T04:37:34;23.90;62.60
44537;DHT22;30245;51.966;6.292;2023-07-29T04:40:00;23.80;62.70
44537;DHT22;30245;51.966;6.292;2023-07-29T04:42:25;23.70;62.80
44537;DHT22;30245;51.966;6.292;2023-07-29T04:44:51;23.60;63.10
44537;DHT22;30245;51.966;6.292;2023-07-29T04:47:16;23.60;63.20
44537;DHT22;30245;51.966;6.292;2023-07-29T04:49:42;23.60;63.00
44537;DHT22;30245;51.966;6.292;2023-07-29T04:52:08;23.60;62.90
44537;DHT22;30245;51.966;6.292;2023-07-29T04:54:33;23.70;62.80
44537;DHT22;30245;51.966;6.292;2023-07-29T04:56:59;23.80;62.50
44537;DHT22;30245;51.966;6.292;2023-07-29T04:59:25;23.70;62.30
44537;DHT22;30245;51.966;6.292;2023-07-29T05:01:50;23.60;62.60
44537;DHT22;30245;51.966;6.292;2023-07-29T05:04:16;23.60;62.60
44537;DHT22;30245;51.966;6.292;2023-07-29T05:06:41;23.50;62.70
44537;DHT22;30245;51.966;6.292;2023-07-29T05:09:17;23.40;62.80
44537;DHT22;30245;51.966;6.292;2023-07-29T05:11:44;23.50;62.80
44537;DHT22;30245;51.966;6.292;2023-07-29T05:14:17;23.40;62.80
44537;DHT22;30245;51.966;6.292;2023-07-29T05:16:43;23.30;62.90
44537;DHT22;30245;51.966;6.292;2023-07-29T05:19:09;23.30;62.80
44537;DHT22;30245;51.966;6.292;2023-07-29T05:21:35;23.30;62.50
44537;DHT22;30245;51.966;6.292;2023-07-29T05:24:00;23.30;62.40
44537;DHT22;30245;51.966;6.292;2023-07-29T05:26:26;23.30;62.20
44537;DHT22;30245;51.966;6.292;2023-07-29T05:28:52;23.30;62.10
44537;DHT22;30245;51.966;6.292;2023-07-29T05:31:17;23.20;62.00
44537;DHT22;30245;51.966;6.292;2023-07-29T05:33:43;23.20;61.90
44537;DHT22;30245;51.966;6.292;2023-07-29T05:36:08;23.30;61.90
44537;DHT22;30245;51.966;6.292;2023-07-29T05:38:34;23.30;61.80
44537;DHT22;30245;51.966;6.292;2023-07-29T05:41:00;23.20;61.70
44537;DHT22;30245;51.966;6.292;2023-07-29T05:43:27;23.30;61.60
44537;DHT22;30245;51.966;6.292;2023-07-29T05:45:52;23.30;61.50
44537;DHT22;30245;51.966;6.292;2023-07-29T05:48:19;23.30;61.50
44537;DHT22;30245;51.966;6.292;2023-07-29T05:50:45;23.20;61.50
44537;DHT22;30245;51.966;6.292;2023-07-29T05:53:11;23.30;61.30
44537;DHT22;30245;51.966;6.292;2023-07-29T05:55:36;23.30;61.10
44537;DHT22;30245;51.966;6.292;2023-07-29T05:58:02;23.30;61.00
44537;DHT22;30245;51.966;6.292;2023-07-29T06:00:27;23.30;60.80
44537;DHT22;30245;51.966;6.292;2023-07-29T06:02:53;23.30;60.80
44537;DHT22;30245;51.966;6.292;2023-07-29T06:05:19;23.30;60.70
44537;DHT22;30245;51.966;6.292;2023-07-29T06:07:44;23.30;60.60
44537;DHT22;30245;51.966;6.292;2023-07-29T06:10:14;23.40;60.70
44537;DHT22;30245;51.966;6.292;2023-07-29T06:12:42;23.40;60.40
44537;DHT22;30245;51.966;6.292;2023-07-29T06:15:09;23.40;60.40
44537;DHT22;30245;51.966;6.292;2023-07-29T06:17:34;23.40;60.40
44537;DHT22;30245;51.966;6.292;2023-07-29T06:20:00;23.40;60.30
44537;DHT22;30245;51.966;6.292;2023-07-29T06:22:25;23.60;60.20
44537;DHT22;30245;51.966;6.292;2023-07-29T06:24:51;23.50;59.90
44537;DHT22;30245;51.966;6.292;2023-07-29T06:27:16;23.60;59.90
44537;DHT22;30245;51.966;6.292;2023-07-29T06:29:42;23.50;59.90
44537;DHT22;30245;51.966;6.292;2023-07-29T06:32:08;23.40;60.20
44537;DHT22;30245;51.966;6.292;2023-07-29T06:34:33;23.40;60.40
44537;DHT22;30245;51.966;6.292;2023-07-29T06:36:59;23.40;60.40
44537;DHT22;30245;51.966;6.292;2023-07-29T06:39:24;23.50;60.50
44537;DHT22;30245;51.966;6.292;2023-07-29T06:41:50;23.40;60.40
44537;DHT22;30245;51.966;6.292;2023-07-29T06:44:16;23.40;60.40
44537;DHT22;30245;51.966;6.292;2023-07-29T06:46:42;23.40;60.60
44537;DHT22;30245;51.966;6.292;2023-07-29T06:49:07;23.40;60.50
44537;DHT22;30245;51.966;6.292;2023-07-29T06:51:33;23.50;60.60
44537;DHT22;30245;51.966;6.292;2023-07-29T06:54:01;23.60;60.40
44537;DHT22;30245;51.966;6.292;2023-07-29T06:56:26;23.70;60.10
44537;DHT22;30245;51.966;6.292;2023-07-29T06:58:52;23.80;60.10
44537;DHT22;30245;51.966;6.292;2023-07-29T07:01:18;23.70;60.00
44537;DHT22;30245;51.966;6.292;2023-07-29T07:03:43;23.80;59.90
44537;DHT22;30245;51.966;6.292;2023-07-29T07:06:09;23.80;59.80
44537;DHT22;30245;51.966;6.292;2023-07-29T07:08:34;23.90;59.60
44537;DHT22;30245;51.966;6.292;2023-07-29T07:11:00;24.00;59.40
44537;DHT22;30245;51.966;6.292;2023-07-29T07:13:27;24.00;59.30
44537;DHT22;30245;51.966;6.292;2023-07-29T07:15:56;23.90;59.50
44537;DHT22;30245;51.966;6.292;2023-07-29T07:18:22;24.00;59.40
44537;DHT22;30245;51.966;6.292;2023-07-29T07:20:51;24.10;59.20
44537;DHT22;30245;51.966;6.292;2023-07-29T07:23:17;24.10;59.00
44537;DHT22;30245;51.966;6.292;2023-07-29T07:25:43;24.00;59.00
44537;DHT22;30245;51.966;6.292;2023-07-29T07:28:10;23.90;59.20
44537;DHT22;30245;51.966;6.292;2023-07-29T07:30:39;24.00;59.40
44537;DHT22;30245;51.966;6.292;2023-07-29T07:33:05;23.90;59.20
44537;DHT22;30245;51.966;6.292;2023-07-29T07:35:31;23.90;59.40
44537;DHT22;30245;51.966;6.292;2023-07-29T07:37:56;23.90;59.40
44537;DHT22;30245;51.966;6.292;2023-07-29T07:40:22;23.90;59.50
44537;DHT22;30245;51.966;6.292;2023-07-29T07:42:47;23.90;59.50
44537;DHT22;30245;51.966;6.292;2023-07-29T07:45:13;23.80;59.50
44537;DHT22;30245;51.966;6.292;2023-07-29T07:47:39;23.90;59.50
44537;DHT22;30245;51.966;6.292;2023-07-29T07:50:04;23.90;59.40
44537;DHT22;30245;51.966;6.292;2023-07-29T07:52:30;23.90;59.30
44537;DHT22;30245;51.966;6.292;2023-07-29T07:54:56;24.10;59.30
44537;DHT22;30245;51.966;6.292;2023-07-29T07:57:21;24.20;59.00
44537;DHT22;30245;51.966;6.292;2023-07-29T07:59:47;24.30;59.10
44537;DHT22;30245;51.966;6.292;2023-07-29T08:02:13;24.40;58.90
44537;DHT22;30245;51.966;6.292;2023-07-29T08:04:38;24.50;58.90
44537;DHT22;30245;51.966;6.292;2023-07-29T08:07:04;24.60;58.50
44537;DHT22;30245;51.966;6.292;2023-07-29T08:09:30;24.70;58.30
44537;DHT22;30245;51.966;6.292;2023-07-29T08:11:56;24.90;58.00
44537;DHT22;30245;51.966;6.292;2023-07-29T08:14:22;25.00;57.60
44537;DHT22;30245;51.966;6.292;2023-07-29T08:16:47;25.00;57.50
44537;DHT22;30245;51.966;6.292;2023-07-29T08:19:13;25.10;57.60
44537;DHT22;30245;51.966;6.292;2023-07-29T08:21:38;25.20;57.30
44537;DHT22;30245;51.966;6.292;2023-07-29T08:24:04;25.30;57.30
44537;DHT22;30245;51.966;6.292;2023-07-29T08:26:30;25.40;57.00
44537;DHT22;30245;51.966;6.292;2023-07-29T08:28:55;25.50;56.60
44537;DHT22;30245;51.966;6.292;2023-07-29T08:31:21;25.40;56.50
44537;DHT22;30245;51.966;6.292;2023-07-29T08:33:47;25.40;56.70
44537;DHT22;30245;51.966;6.292;2023-07-29T08:36:12;25.40;56.60
44537;DHT22;30245;51.966;6.292;2023-07-29T08:38:38;25.30;56.50
44537;DHT22;30245;51.966;6.292;2023-07-29T08:41:19;25.30;56.60
44537;DHT22;30245;51.966;6.292;2023-07-29T08:44:05;25.40;56.40
44537;DHT22;30245;51.966;6.292;2023-07-29T08:46:32;25.40;56.20
44537;DHT22;30245;51.966;6.292;2023-07-29T08:48:59;25.40;56.10
44537;DHT22;30245;51.966;6.292;2023-07-29T08:51:26;25.40;56.10
44537;DHT22;30245;51.966;6.292;2023-07-29T08:53:52;25.40;56.20
44537;DHT22;30245;51.966;6.292;2023-07-29T08:56:18;25.40;56.00
44537;DHT22;30245;51.966;6.292;2023-07-29T08:58:44;25.40;56.00
44537;DHT22;30245;51.966;6.292;2023-07-29T09:01:09;25.40;55.90
44537;DHT22;30245;51.966;6.292;2023-07-29T09:03:36;25.30;56.20
44537;DHT22;30245;51.966;6.292;2023-07-29T09:06:02;25.30;56.40
44537;DHT22;30245;51.966;6.292;2023-07-29T09:08:28;25.30;56.30
44537;DHT22;30245;51.966;6.292;2023-07-29T09:10:55;25.30;56.40
44537;DHT22;30245;51.966;6.292;2023-07-29T09:13:24;25.30;56.40
44537;DHT22;30245;51.966;6.292;2023-07-29T09:15:54;25.50;56.20
44537;DHT22;30245;51.966;6.292;2023-07-29T09:18:21;25.60;56.00
44537;DHT22;30245;51.966;6.292;2023-07-29T09:20:48;25.70;56.00
44537;DHT22;30245;51.966;6.292;2023-07-29T09:23:14;25.70;55.90
44537;DHT22;30245;51.966;6.292;2023-07-29T09:25:40;25.70;56.00
44537;DHT22;30245;51.966;6.292;2023-07-29T09:28:16;25.60;56.00
44537;DHT22;30245;51.966;6.292;2023-07-29T09:30:45;25.60;56.30
44537;DHT22;30245;51.966;6.292;2023-07-29T09:33:10;25.70;56.00
44537;DHT22;30245;51.966;6.292;2023-07-29T09:35:37;25.70;55.80
44537;DHT22;30245;51.966;6.292;2023-07-29T09:38:04;25.80;55.70
44537;DHT22;30245;51.966;6.292;2023-07-29T09:40:35;25.90;55.60
44537;DHT22;30245;51.966;6.292;2023-07-29T09:43:01;25.90;55.20
44537;DHT22;30245;51.966;6.292;2023-07-29T09:45:27;26.00;55.10
44537;DHT22;30245;51.966;6.292;2023-07-29T09:47:53;25.90;54.90
44537;DHT22;30245;51.966;6.292;2023-07-29T09:50:23;26.00;54.90
44537;DHT22;30245;51.966;6.292;2023-07-29T09:52:50;26.10;54.80
44537;DHT22;30245;51.966;6.292;2023-07-29T09:55:20;26.30;55.30
44537;DHT22;30245;51.966;6.292;2023-07-29T09:57:47;26.40;54.60
44537;DHT22;30245;51.966;6.292;2023-07-29T10:00:13;26.50;54.50
44537;DHT22;30245;51.966;6.292;2023-07-29T10:02:43;26.60;54.20
44537;DHT22;30245;51.966;6.292;2023-07-29T10:05:09;26.60;54.10
44537;DHT22;30245;51.966;6.292;2023-07-29T10:07:39;26.60;53.80
44537;DHT22;30245;51.966;6.292;2023-07-29T10:10:06;26.60;53.80
44537;DHT22;30245;51.966;6.292;2023-07-29T10:12:32;26.60;54.00
44537;DHT22;30245;51.966;6.292;2023-07-29T10:15:06;26.70;53.80
44537;DHT22;30245;51.966;6.292;2023-07-29T10:17:39;26.70;53.60
44537;DHT22;30245;51.966;6.292;2023-07-29T10:20:09;26.80;53.50
44537;DHT22;30245;51.966;6.292;2023-07-29T10:22:42;27.00;53.40
44537;DHT22;30245;51.966;6.292;2023-07-29T10:25:13;27.00;52.90
44537;DHT22;30245;51.966;6.292;2023-07-29T10:27:47;27.10;52.70
44537;DHT22;30245;51.966;6.292;2023-07-29T10:30:13;27.10;52.60
44537;DHT22;30245;51.966;6.292;2023-07-29T10:32:42;27.00;52.70
44537;DHT22;30245;51.966;6.292;2023-07-29T10:35:08;27.00;52.80
44537;DHT22;30245;51.966;6.292;2023-07-29T10:37:35;27.10;53.10
44537;DHT22;30245;51.966;6.292;2023-07-29T10:40:00;27.10;52.90
44537;DHT22;30245;51.966;6.292;2023-07-29T10:42:31;27.40;52.70
44537;DHT22;30245;51.966;6.292;2023-07-29T10:44:56;27.40;52.30
44537;DHT22;30245;51.966;6.292;2023-07-29T10:47:27;27.50;52.10
44537;DHT22;30245;51.966;6.292;2023-07-29T10:49:55;27.50;51.90
44537;DHT22;30245;51.966;6.292;2023-07-29T10:54:59;27.50;52.10
44537;DHT22;30245;51.966;6.292;2023-07-29T10:57:35;27.50;52.10
44537;DHT22;30245;51.966;6.292;2023-07-29T11:00:02;27.60;51.70
44537;DHT22;30245;51.966;6.292;2023-07-29T11:02:36;27.60;51.50
44537;DHT22;30245;51.966;6.292;2023-07-29T11:05:06;27.60;51.40
44537;DHT22;30245;51.966;6.292;2023-07-29T11:07:46;27.60;51.40
44537;DHT22;30245;51.966;6.292;2023-07-29T11:10:12;27.60;51.40
44537;DHT22;30245;51.966;6.292;2023-07-29T11:20:05;27.80;51.10
44537;DHT22;30245;51.966;6.292;2023-07-29T11:22:32;27.80;51.30
44537;DHT22;30245;51.966;6.292;2023-07-29T11:24:58;27.90;51.30
44537;DHT22;30245;51.966;6.292;2023-07-29T11:27:24;28.00;50.90
44537;DHT22;30245;51.966;6.292;2023-07-29T11:29:49;28.00;50.80
44537;DHT22;30245;51.966;6.292;2023-07-29T11:32:15;27.90;50.50
44537;DHT22;30245;51.966;6.292;2023-07-29T11:34:42;27.90;50.50
44537;DHT22;30245;51.966;6.292;2023-07-29T11:37:10;27.80;50.50
44537;DHT22;30245;51.966;6.292;2023-07-29T11:39:40;27.80;50.50
44537;DHT22;30245;51.966;6.292;2023-07-29T11:42:06;27.80;50.50
44537;DHT22;30245;51.966;6.292;2023-07-29T11:44:32;27.90;50.40
44537;DHT22;30245;51.966;6.292;2023-07-29T11:46:58;28.00;50.20
44537;DHT22;30245;51.966;6.292;2023-07-29T11:49:23;28.00;49.90
44537;DHT22;30245;51.966;6.292;2023-07-29T11:51:49;28.10;50.00
44537;DHT22;30245;51.966;6.292;2023-07-29T11:54:15;28.20;49.60
44537;DHT22;30245;51.966;6.292;2023-07-29T11:56:41;28.40;49.30
44537;DHT22;30245;51.966;6.292;2023-07-29T11:59:07;28.50;49.00
44537;DHT22;30245;51.966;6.292;2023-07-29T12:01:33;28.50;48.70
44537;DHT22;30245;51.966;6.292;2023-07-29T12:03:59;28.50;48.80
44537;DHT22;30245;51.966;6.292;2023-07-29T12:06:25;28.50;48.80
44537;DHT22;30245;51.966;6.292;2023-07-29T12:08:51;28.50;48.80
44537;DHT22;30245;51.966;6.292;2023-07-29T12:11:17;28.60;48.90
44537;DHT22;30245;51.966;6.292;2023-07-29T12:13:43;28.80;48.70
44537;DHT22;30245;51.966;6.292;2023-07-29T12:16:09;28.90;48.50
44537;DHT22;30245;51.966;6.292;2023-07-29T12:18:36;28.90;48.00
44537;DHT22;30245;51.966;6.292;2023-07-29T12:21:02;28.60;48.20
44537;DHT22;30245;51.966;6.292;2023-07-29T12:23:29;28.40;48.50
44537;DHT22;30245;51.966;6.292;2023-07-29T12:25:59;28.30;48.60
44537;DHT22;30245;51.966;6.292;2023-07-29T12:28:28;28.00;49.10
44537;DHT22;30245;51.966;6.292;2023-07-29T12:30:57;27.70;50.10
44537;DHT22;30245;51.966;6.292;2023-07-29T12:33:36;27.40;51.50
44537;DHT22;30245;51.966;6.292;2023-07-29T12:36:03;27.00;53.10
44537;DHT22;30245;51.966;6.292;2023-07-29T12:38:29;26.60;54.00
44537;DHT22;30245;51.966;6.292;2023-07-29T12:40:55;26.20;55.00
44537;DHT22;30245;51.966;6.292;2023-07-29T12:43:21;25.90;56.00
44537;DHT22;30245;51.966;6.292;2023-07-29T12:45:49;25.70;56.70
44537;DHT22;30245;51.966;6.292;2023-07-29T12:48:14;25.50;57.10
44537;DHT22;30245;51.966;6.292;2023-07-29T12:50:40;25.20;57.70
44537;DHT22;30245;51.966;6.292;2023-07-29T12:53:07;25.20;58.10
44537;DHT22;30245;51.966;6.292;2023-07-29T12:55:33;25.10;58.00
44537;DHT22;30245;51.966;6.292;2023-07-29T12:57:58;25.10;58.20
44537;DHT22;30245;51.966;6.292;2023-07-29T13:00:24;25.10;58.50
44537;DHT22;30245;51.966;6.292;2023-07-29T13:02:50;25.00;58.60
44537;DHT22;30245;51.966;6.292;2023-07-29T13:05:16;25.00;58.50
44537;DHT22;30245;51.966;6.292;2023-07-29T13:07:43;25.10;58.80
44537;DHT22;30245;51.966;6.292;2023-07-29T13:10:12;25.20;58.50
44537;DHT22;30245;51.966;6.292;2023-07-29T13:12:38;25.30;58.60
44537;DHT22;30245;51.966;6.292;2023-07-29T13:15:04;25.30;58.50
44537;DHT22;30245;51.966;6.292;2023-07-29T13:17:30;25.50;58.60
44537;DHT22;30245;51.966;6.292;2023-07-29T13:19:55;25.70;58.10
44537;DHT22;30245;51.966;6.292;2023-07-29T13:22:21;25.90;57.70
44537;DHT22;30245;51.966;6.292;2023-07-29T13:24:47;26.10;57.50
44537;DHT22;30245;51.966;6.292;2023-07-29T13:27:12;26.20;57.30
44537;DHT22;30245;51.966;6.292;2023-07-29T13:29:39;26.10;57.50
44537;DHT22;30245;51.966;6.292;2023-07-29T13:32:05;26.20;57.90
44537;DHT22;30245;51.966;6.292;2023-07-29T13:34:31;26.30;58.00
44537;DHT22;30245;51.966;6.292;2023-07-29T13:36:57;26.60;57.80
44537;DHT22;30245;51.966;6.292;2023-07-29T13:39:23;26.80;57.50
44537;DHT22;30245;51.966;6.292;2023-07-29T13:41:48;27.10;57.40
44537;DHT22;30245;51.966;6.292;2023-07-29T13:44:14;27.20;57.30
44537;DHT22;30245;51.966;6.292;2023-07-29T13:46:40;27.30;57.10
44537;DHT22;30245;51.966;6.292;2023-07-29T13:49:05;27.40;56.90
44537;DHT22;30245;51.966;6.292;2023-07-29T13:51:31;27.40;56.80
44537;DHT22;30245;51.966;6.292;2023-07-29T13:53:56;27.40;57.10
44537;DHT22;30245;51.966;6.292;2023-07-29T13:56:22;27.40;56.80
44537;DHT22;30245;51.966;6.292;2023-07-29T13:58:48;27.40;56.70
44537;DHT22;30245;51.966;6.292;2023-07-29T14:01:13;27.70;55.80
44537;DHT22;30245;51.966;6.292;2023-07-29T14:03:39;27.90;55.60
44537;DHT22;30245;51.966;6.292;2023-07-29T14:06:05;28.20;55.30
44537;DHT22;30245;51.966;6.292;2023-07-29T14:08:30;28.40;54.70
44537;DHT22;30245;51.966;6.292;2023-07-29T14:10:56;28.40;54.60
44537;DHT22;30245;51.966;6.292;2023-07-29T14:13:21;28.50;54.20
44537;DHT22;30245;51.966;6.292;2023-07-29T14:15:47;28.60;54.10
44537;DHT22;30245;51.966;6.292;2023-07-29T14:18:12;28.60;53.70
44537;DHT22;30245;51.966;6.292;2023-07-29T14:20:38;28.50;53.80
44537;DHT22;30245;51.966;6.292;2023-07-29T14:23:04;28.40;53.70
44537;DHT22;30245;51.966;6.292;2023-07-29T14:25:30;28.30;53.60
44537;DHT22;30245;51.966;6.292;2023-07-29T14:27:55;28.40;53.20
44537;DHT22;30245;51.966;6.292;2023-07-29T14:30:21;28.70;52.60
44537;DHT22;30245;51.966;6.292;2023-07-29T14:32:46;29.10;52.40
44537;DHT22;30245;51.966;6.292;2023-07-29T14:35:12;29.30;51.50
44537;DHT22;30245;51.966;6.292;2023-07-29T14:37:38;29.40;51.50
44537;DHT22;30245;51.966;6.292;2023-07-29T14:40:04;29.40;51.80
44537;DHT22;30245;51.966;6.292;2023-07-29T14:42:30;29.50;51.90
44537;DHT22;30245;51.966;6.292;2023-07-29T14:44:56;29.70;51.50
44537;DHT22;30245;51.966;6.292;2023-07-29T14:47:21;30.00;51.10
44537;DHT22;30245;51.966;6.292;2023-07-29T14:49:47;30.30;50.50
44537;DHT22;30245;51.966;6.292;2023-07-29T14:52:12;30.60;50.20
44537;DHT22;30245;51.966;6.292;2023-07-29T14:54:38;30.90;49.80
44537;DHT22;30245;51.966;6.292;2023-07-29T14:57:07;31.10;49.30
44537;DHT22;30245;51.966;6.292;2023-07-29T14:59:33;31.20;48.80
44537;DHT22;30245;51.966;6.292;2023-07-29T15:01:58;31.20;48.70
44537;DHT22;30245;51.966;6.292;2023-07-29T15:04:24;31.30;48.30
44537;DHT22;30245;51.966;6.292;2023-07-29T15:06:50;31.30;48.60
44537;DHT22;30245;51.966;6.292;2023-07-29T15:09:16;31.30;48.40
44537;DHT22;30245;51.966;6.292;2023-07-29T15:11:41;31.40;47.90
44537;DHT22;30245;51.966;6.292;2023-07-29T15:14:07;31.30;47.40
44537;DHT22;30245;51.966;6.292;2023-07-29T15:16:33;31.00;47.10
44537;DHT22;30245;51.966;6.292;2023-07-29T15:19:03;30.50;47.50
44537;DHT22;30245;51.966;6.292;2023-07-29T15:21:29;30.10;48.30
44537;DHT22;30245;51.966;6.292;2023-07-29T15:23:55;30.10;48.70
44537;DHT22;30245;51.966;6.292;2023-07-29T15:26:21;30.30;48.30
44537;DHT22;30245;51.966;6.292;2023-07-29T15:28:46;30.30;47.90
44537;DHT22;30245;51.966;6.292;2023-07-29T15:31:15;30.20;48.00
44537;DHT22;30245;51.966;6.292;2023-07-29T15:33:41;30.10;48.10
44537;DHT22;30245;51.966;6.292;2023-07-29T15:36:06;30.30;48.10
44537;DHT22;30245;51.966;6.292;2023-07-29T15:38:32;30.70;47.60
44537;DHT22;30245;51.966;6.292;2023-07-29T15:40:58;31.00;47.10
44537;DHT22;30245;51.966;6.292;2023-07-29T15:43:24;31.10;46.20
44537;DHT22;30245;51.966;6.292;2023-07-29T15:45:50;31.10;45.90